Time;durP1;ratioP1;P1;durP2;ratioP2;P2;SDS_P1;SDS_P2;PMS_P1;PMS_P2;Temp;Humidity;BMP_temperature;BMP_pressure;BME280_temperature;BME280_humidity;BME280_pressure;Samples;Min_cycle;Max_cycle;Signal;HPM_P1;HPM_P2
2022/11/18 00:00:56;;;;;;;;;;;;;;;21.02;49.90;98943.19;7253749;19;153028;-59
2022/11/18 00:03:23;;;;;;;;;;;;;;;21.04;49.81;98943.63;7251500;19;155089;-59
2022/11/18 00:05:53;;;;;;;;;;;;;;;21.06;49.71;98944.91;7251024;19;153634;-59
2022/11/18 00:08:21;;;;;;;;;;;;;;;21.08;49.61;98950.16;7248906;19;154288;-59
2022/11/18 00:10:48;;;;;;;;;;;;;;;21.09;49.68;98963.84;7252090;19;154287;-59
2022/11/18 00:16:00;;;;;;;;;;;;;;;21.10;49.41;98961.84;7253408;19;153325;-59
2022/11/18 00:18:27;;;;;;;;;;;;;;;21.12;49.67;98967.94;7254382;19;154120;-59
2022/11/18 00:20:54;;;;;;;;;;;;;;;21.13;49.35;98966.78;7253185;19;152278;-59
2022/11/18 00:23:21;;;;;;;;;;;;;;;21.14;48.90;98965.59;7247043;19;155724;-58
2022/11/18 00:25:47;;;;;;;;;;;;;;;21.13;48.74;98970.41;7253224;19;152087;-58
2022/11/18 00:28:14;;;;;;;;;;;;;;;21.14;48.69;98974.84;7251098;19;153860;-58
2022/11/18 00:30:41;;;;;;;;;;;;;;;21.14;48.96;98972.03;7252347;19;153881;-58
2022/11/18 00:33:07;;;;;;;;;;;;;;;21.15;48.72;98987.72;7249846;19;153763;-58
2022/11/18 00:35:34;;;;;;;;;;;;;;;21.15;48.69;98984.09;7253055;19;154676;-58
2022/11/18 00:38:01;;;;;;;;;;;;;;;21.13;48.77;98990.06;7246712;19;153858;-58
2022/11/18 00:40:27;;;;;;;;;;;;;;;21.15;49.11;98992.53;7260431;19;154198;-58
2022/11/18 00:42:55;;;;;;;;;;;;;;;21.14;48.84;98994.50;7251703;19;154073;-58
2022/11/18 00:45:22;;;;;;;;;;;;;;;21.13;49.16;99004.09;7250451;19;155292;-58
2022/11/18 00:47:48;;;;;;;;;;;;;;;21.14;48.79;99002.13;7250869;19;153338;-60
2022/11/18 00:50:15;;;;;;;;;;;;;;;21.12;48.71;99007.25;7255990;19;156462;-58
2022/11/18 00:52:42;;;;;;;;;;;;;;;21.14;48.86;99013.34;7253755;19;154189;-58
2022/11/18 00:55:09;;;;;;;;;;;;;;;21.11;48.42;99008.44;7259977;19;153923;-58
2022/11/18 00:57:35;;;;;;;;;;;;;;;21.11;49.01;99016.84;7256817;19;154178;-59
2022/11/18 01:00:05;;;;;;;;;;;;;;;21.12;48.60;99018.50;7257052;19;154151;-58
2022/11/18 01:02:31;;;;;;;;;;;;;;;21.09;48.50;99020.00;7264624;19;154607;-58
2022/11/18 01:04:58;;;;;;;;;;;;;;;21.11;48.62;99028.09;7256853;19;152647;-59
2022/11/18 01:07:25;;;;;;;;;;;;;;;21.09;48.56;99019.19;7249309;19;153479;-59
2022/11/18 01:09:52;;;;;;;;;;;;;;;21.08;49.01;99028.78;7254695;19;154933;-59
2022/11/18 01:15:04;;;;;;;;;;;;;;;21.05;48.60;99029.50;7257578;19;154159;-59
2022/11/18 01:17:31;;;;;;;;;;;;;;;21.03;48.97;99031.88;7256969;19;153422;-59
2022/11/18 01:19:58;;;;;;;;;;;;;;;20.99;48.72;99034.56;7257200;19;153714;-59
2022/11/18 01:22:24;;;;;;;;;;;;;;;20.98;48.97;99034.94;7254375;19;154493;-59
2022/11/18 01:24:51;;;;;;;;;;;;;;;20.96;48.61;99034.47;7262773;19;154653;-59
2022/11/18 01:27:18;;;;;;;;;;;;;;;20.96;48.72;99040.91;7255723;19;152818;-59
2022/11/18 01:29:44;;;;;;;;;;;;;;;20.94;49.05;99043.22;7256685;19;153398;-59
2022/11/18 01:32:11;;;;;;;;;;;;;;;20.90;49.16;99055.53;7256801;19;153180;-59
2022/11/18 01:34:53;;;;;;;;;;;;;;;20.91;48.70;99051.56;7258771;19;155142;-59
2022/11/18 01:37:20;;;;;;;;;;;;;;;20.88;49.02;99053.09;7252289;19;155865;-58
2022/11/18 01:39:47;;;;;;;;;;;;;;;20.86;49.12;99059.06;7258226;19;153694;-58
2022/11/18 01:42:14;;;;;;;;;;;;;;;20.85;49.14;99062.22;7255188;19;154090;-58
2022/11/18 01:44:59;;;;;;;;;;;;;;;20.83;49.13;99062.59;7257386;19;153845;-58
2022/11/18 01:47:28;;;;;;;;;;;;;;;20.80;49.00;99065.31;7260015;19;153307;-58
2022/11/18 01:49:55;;;;;;;;;;;;;;;20.78;49.13;99079.69;7257196;19;153370;-58
2022/11/18 01:52:22;;;;;;;;;;;;;;;20.77;48.96;99075.25;7250544;19;153303;-60
2022/11/18 01:54:51;;;;;;;;;;;;;;;20.76;49.59;99084.00;7257474;19;152750;-59
2022/11/18 01:57:21;;;;;;;;;;;;;;;20.72;49.20;99083.91;7254078;19;153959;-59
2022/11/18 01:59:49;;;;;;;;;;;;;;;20.69;49.18;99090.22;7257834;19;153679;-59
2022/11/18 02:02:16;;;;;;;;;;;;;;;20.70;49.01;99079.84;7253060;19;152864;-59
2022/11/18 02:04:46;;;;;;;;;;;;;;;20.69;49.09;99092.22;7256050;19;153803;-59
2022/11/18 02:07:13;;;;;;;;;;;;;;;20.66;49.11;99092.94;7258139;19;154600;-58
2022/11/18 02:09:41;;;;;;;;;;;;;;;20.66;49.46;99105.00;7255736;19;154368;-59
2022/11/18 02:12:08;;;;;;;;;;;;;;;20.64;49.34;99100.88;7256260;19;153920;-59
2022/11/18 02:14:38;;;;;;;;;;;;;;;20.64;49.21;99101.69;7258187;19;154944;-59
2022/11/18 02:17:04;;;;;;;;;;;;;;;20.59;49.42;99099.13;7254714;19;155616;-58
2022/11/18 02:19:47;;;;;;;;;;;;;;;20.57;48.69;99101.50;7254300;19;153392;-58
2022/11/18 02:22:13;;;;;;;;;;;;;;;20.55;48.95;99103.81;7254771;19;153819;-58
2022/11/18 02:24:55;;;;;;;;;;;;;;;20.55;49.26;99106.63;7252706;19;153520;-58
2022/11/18 02:27:40;;;;;;;;;;;;;;;20.55;49.26;99111.41;7252474;19;153888;-58
2022/11/18 02:30:09;;;;;;;;;;;;;;;20.54;49.11;99113.41;7263550;19;153338;-58
2022/11/18 02:32:36;;;;;;;;;;;;;;;20.54;49.09;99115.41;7255151;19;153560;-58
2022/11/18 02:35:14;;;;;;;;;;;;;;;20.54;49.24;99124.63;7256563;19;154083;-58
2022/11/18 02:37:53;;;;;;;;;;;;;;;20.51;49.25;99125.34;7246141;19;154201;-58
2022/11/18 02:40:52;;;;;;;;;;;;;;;20.54;48.63;99127.44;7256135;19;154884;-58
2022/11/18 02:43:21;;;;;;;;;;;;;;;20.57;49.00;99129.56;7251913;19;153626;-58
2022/11/18 02:45:50;;;;;;;;;;;;;;;20.53;48.80;99128.63;7253824;19;154495;-58
2022/11/18 02:48:18;;;;;;;;;;;;;;;20.51;48.98;99139.38;7253244;19;154351;-58
2022/11/18 02:50:46;;;;;;;;;;;;;;;20.50;48.97;99140.53;7254600;19;154527;-58
2022/11/18 02:53:15;;;;;;;;;;;;;;;20.50;48.79;99146.16;7260454;19;154349;-58
2022/11/18 02:55:43;;;;;;;;;;;;;;;20.45;48.88;99148.38;7254411;19;154140;-60
2022/11/18 02:58:10;;;;;;;;;;;;;;;20.47;48.95;99138.44;7254298;19;156936;-58
2022/11/18 03:00:37;;;;;;;;;;;;;;;20.49;48.92;99143.72;7254312;19;153052;-58
2022/11/18 03:03:36;;;;;;;;;;;;;;;20.47;48.88;99152.47;7256098;19;153266;-58
2022/11/18 03:06:06;;;;;;;;;;;;;;;20.47;48.46;99146.88;7251166;19;153836;-58
2022/11/18 03:08:45;;;;;;;;;;;;;;;20.46;48.64;99152.81;7251251;19;154839;-58
2022/11/18 03:11:15;;;;;;;;;;;;;;;20.43;48.84;99162.75;7255545;19;153412;-58
2022/11/18 03:14:05;;;;;;;;;;;;;;;20.44;48.51;99157.97;7255874;19;156166;-58
2022/11/18 03:16:43;;;;;;;;;;;;;;;20.42;48.47;99169.53;7261509;19;153468;-58
2022/11/18 03:19:31;;;;;;;;;;;;;;;20.42;48.47;99177.94;7254882;19;153852;-59
2022/11/18 03:22:04;;;;;;;;;;;;;;;20.41;48.65;99171.53;7253152;19;154382;-58
2022/11/18 03:24:32;;;;;;;;;;;;;;;20.37;48.64;99175.38;7258404;19;153126;-60
2022/11/18 03:27:28;;;;;;;;;;;;;;;20.37;48.47;99181.81;7252444;19;155526;-58
2022/11/18 03:30:02;;;;;;;;;;;;;;;20.34;48.59;99187.31;7253318;19;155019;-58
2022/11/18 03:32:36;;;;;;;;;;;;;;;20.35;48.96;99186.16;7254174;19;153922;-60
2022/11/18 03:35:08;;;;;;;;;;;;;;;20.34;48.80;99190.13;7253667;19;156530;-58
2022/11/18 03:37:37;;;;;;;;;;;;;;;20.34;48.52;99192.91;7246754;19;154034;-59
2022/11/18 03:40:24;;;;;;;;;;;;;;;20.30;48.75;99184.41;7262337;19;154554;-59
2022/11/18 03:42:53;;;;;;;;;;;;;;;20.31;48.83;99197.22;7254586;19;153442;-59
2022/11/18 03:45:25;;;;;;;;;;;;;;;20.31;48.64;99200.03;7254912;19;153973;-59
2022/11/18 03:48:18;;;;;;;;;;;;;;;20.26;48.69;99200.22;7251376;19;153304;-59
2022/11/18 03:51:06;;;;;;;;;;;;;;;20.24;49.22;99208.19;7254031;19;153659;-58
2022/11/18 03:53:35;;;;;;;;;;;;;;;20.22;48.79;99204.06;7249287;19;154753;-59
2022/11/18 03:56:10;;;;;;;;;;;;;;;20.20;48.85;99212.03;7253596;19;152874;-58
2022/11/18 03:58:48;;;;;;;;;;;;;;;20.17;49.02;99215.53;7254817;19;152250;-58
2022/11/18 04:01:17;;;;;;;;;;;;;;;20.14;48.96;99216.22;7251594;19;154784;-58
2022/11/18 04:03:44;;;;;;;;;;;;;;;20.12;48.81;99212.97;7260731;19;154161;-58
2022/11/18 04:06:19;;;;;;;;;;;;;;;20.10;49.18;99216.09;7251184;19;153154;-58
2022/11/18 04:08:49;;;;;;;;;;;;;;;20.08;48.91;99240.84;7250078;19;155962;-58
2022/11/18 04:14:06;;;;;;;;;;;;;;;20.03;49.27;99235.50;7255068;19;153812;-61
2022/11/18 04:16:43;;;;;;;;;;;;;;;20.03;49.11;99237.47;7251217;19;154331;-58
2022/11/18 04:19:10;;;;;;;;;;;;;;;20.02;49.28;99241.44;7253817;19;153032;-59
2022/11/18 04:21:36;;;;;;;;;;;;;;;19.99;49.21;99251.34;7250750;19;154138;-59
2022/11/18 04:24:03;;;;;;;;;;;;;;;19.98;49.22;99252.53;7258226;19;152654;-59
2022/11/18 04:26:30;;;;;;;;;;;;;;;19.95;49.09;99248.41;7259998;19;154248;-59
2022/11/18 04:28:57;;;;;;;;;;;;;;;19.94;49.47;99260.78;7259349;19;153933;-59
2022/11/18 04:31:24;;;;;;;;;;;;;;;19.94;49.63;99263.59;7260675;19;154430;-59
2022/11/18 04:33:50;;;;;;;;;;;;;;;19.90;49.48;99268.25;7260412;19;152377;-59
2022/11/18 04:36:18;;;;;;;;;;;;;;;19.93;49.40;99276.00;7258659;19;153430;-59
2022/11/18 04:38:45;;;;;;;;;;;;;;;19.90;49.53;99275.84;7258806;19;153532;-59
2022/11/18 04:41:11;;;;;;;;;;;;;;;19.87;49.39;99282.97;7261236;19;154032;-59
2022/11/18 04:43:38;;;;;;;;;;;;;;;19.86;49.51;99284.13;7259125;19;156031;-59
2022/11/18 04:46:05;;;;;;;;;;;;;;;19.84;49.75;99282.84;7269001;19;152798;-59
2022/11/18 04:48:32;;;;;;;;;;;;;;;19.85;49.70;99290.88;7255379;19;154477;-59
2022/11/18 04:51:02;;;;;;;;;;;;;;;19.84;49.65;99289.28;7257199;19;153093;-59
2022/11/18 04:53:29;;;;;;;;;;;;;;;19.83;49.73;99286.81;7256433;19;155531;-59
2022/11/18 04:55:56;;;;;;;;;;;;;;;19.81;49.92;99298.34;7259038;19;155532;-58
2022/11/18 04:58:22;;;;;;;;;;;;;;;19.81;49.55;99303.13;7259102;19;153492;-59
2022/11/18 05:00:49;;;;;;;;;;;;;;;19.79;49.75;99302.66;7260310;19;155549;-59
2022/11/18 05:03:16;;;;;;;;;;;;;;;19.77;50.28;99304.97;7258386;19;154755;-59
2022/11/18 05:05:43;;;;;;;;;;;;;;;19.76;49.94;99309.75;7259737;19;152963;-58
2022/11/18 05:08:09;;;;;;;;;;;;;;;19.74;49.83;99312.09;7260245;19;152737;-58
2022/11/18 05:10:37;;;;;;;;;;;;;;;19.73;49.80;99318.88;7260099;19;154753;-58
2022/11/18 05:13:03;;;;;;;;;;;;;;;19.72;49.81;99322.00;7258987;19;153711;-58
2022/11/18 05:15:30;;;;;;;;;;;;;;;19.71;50.24;99328.78;7258642;19;154536;-58
2022/11/18 05:17:57;;;;;;;;;;;;;;;19.69;50.12;99322.69;7257990;19;153854;-58
2022/11/18 05:20:24;;;;;;;;;;;;;;;19.68;49.91;99330.28;7260332;19;153569;-59
2022/11/18 05:22:50;;;;;;;;;;;;;;;19.65;50.40;99333.78;7254051;19;155744;-59
2022/11/18 05:25:17;;;;;;;;;;;;;;;19.66;49.98;99334.59;7257761;19;153250;-58
2022/11/18 05:27:44;;;;;;;;;;;;;;;19.65;50.38;99346.97;7256713;19;155224;-58
2022/11/18 05:30:11;;;;;;;;;;;;;;;19.64;50.50;99348.13;7265989;19;154004;-59
2022/11/18 05:32:37;;;;;;;;;;;;;;;19.62;49.94;99340.06;7257249;19;153801;-58
2022/11/18 05:35:04;;;;;;;;;;;;;;;19.62;50.26;99344.84;7258888;19;154812;-58
2022/11/18 05:37:32;;;;;;;;;;;;;;;19.66;50.32;99346.63;7254629;19;154098;-58
2022/11/18 05:39:59;;;;;;;;;;;;;;;19.66;50.59;99359.81;7259043;19;155875;-59
2022/11/18 05:45:12;;;;;;;;;;;;;;;19.69;51.22;99362.75;7259416;19;151969;-58
2022/11/18 05:47:58;;;;;;;;;;;;;;;19.73;51.47;99368.47;7256895;19;153858;-58
2022/11/18 05:50:25;;;;;;;;;;;;;;;19.77;51.19;99372.25;7257629;19;153996;-58
2022/11/18 05:52:51;;;;;;;;;;;;;;;19.81;51.46;99381.59;7263377;19;153776;-59
2022/11/18 05:55:19;;;;;;;;;;;;;;;19.84;51.65;99375.31;7257727;19;154303;-58
2022/11/18 05:57:46;;;;;;;;;;;;;;;19.87;51.58;99383.03;7254297;19;153005;-59
2022/11/18 06:00:13;;;;;;;;;;;;;;;19.91;51.73;99384.00;7259108;19;153427;-59
2022/11/18 06:02:41;;;;;;;;;;;;;;;19.94;51.79;99391.75;7254752;19;156748;-59
2022/11/18 06:05:10;;;;;;;;;;;;;;;19.97;51.95;99397.47;7259074;19;152886;-59
2022/11/18 06:07:38;;;;;;;;;;;;;;;20.02;52.05;99392.81;7250693;19;155733;-59
2022/11/18 06:10:05;;;;;;;;;;;;;;;20.06;51.85;99402.19;7256530;19;153412;-59
2022/11/18 06:12:38;;;;;;;;;;;;;;;20.10;52.40;99405.94;7257833;19;153855;-58
2022/11/18 06:15:08;;;;;;;;;;;;;;;20.15;52.28;99409.38;7264078;19;153282;-58
2022/11/18 06:17:39;;;;;;;;;;;;;;;20.20;52.11;99416.75;7256643;19;153816;-58
2022/11/18 06:20:06;;;;;;;;;;;;;;;20.24;52.30;99421.31;7257790;19;154580;-58
2022/11/18 06:22:34;;;;;;;;;;;;;;;20.29;51.67;99431.50;7252637;19;154440;-58
2022/11/18 06:25:01;;;;;;;;;;;;;;;20.31;51.75;99435.63;7257608;19;152701;-58
2022/11/18 06:27:28;;;;;;;;;;;;;;;20.36;51.92;99434.59;7255501;19;153277;-58
2022/11/18 06:29:55;;;;;;;;;;;;;;;20.40;52.18;99441.97;7256899;19;155782;-58
2022/11/18 06:32:22;;;;;;;;;;;;;;;20.44;52.10;99444.94;7255011;19;151860;-58
2022/11/18 06:34:57;;;;;;;;;;;;;;;20.49;51.86;99458.72;7263070;19;153888;-58
2022/11/18 06:37:24;;;;;;;;;;;;;;;20.54;52.16;99466.13;7252644;19;153613;-59
2022/11/18 06:39:50;;;;;;;;;;;;;;;20.58;52.09;99467.88;7256963;19;152324;-59
2022/11/18 06:45:03;;;;;;;;;;;;;;;20.67;51.79;99477.03;7257269;19;154405;-58
2022/11/18 06:47:30;;;;;;;;;;;;;;;20.72;52.07;99476.81;7254125;19;153584;-59
2022/11/18 06:49:57;;;;;;;;;;;;;;;20.75;51.86;99490.19;7252643;19;153821;-59
2022/11/18 06:52:29;;;;;;;;;;;;;;;20.81;51.75;99493.56;7253286;19;154484;-58
2022/11/18 06:54:56;;;;;;;;;;;;;;;20.86;51.88;99502.63;7256430;19;154784;-59
2022/11/18 06:57:23;;;;;;;;;;;;;;;20.90;51.60;99505.53;7261817;19;156013;-59
2022/11/18 06:59:49;;;;;;;;;;;;;;;20.95;51.60;99508.13;7256996;19;154096;-59
2022/11/18 07:02:18;;;;;;;;;;;;;;;21.00;51.64;99518.31;7255228;19;156482;-59
2022/11/18 07:04:46;;;;;;;;;;;;;;;21.04;51.59;99520.09;7258552;19;153250;-59
2022/11/18 07:07:13;;;;;;;;;;;;;;;21.08;51.44;99528.63;7250311;19;153857;-59
2022/11/18 07:09:40;;;;;;;;;;;;;;;21.13;51.38;99534.91;7252992;19;156202;-59
2022/11/18 07:12:06;;;;;;;;;;;;;;;21.16;51.52;99536.22;7254054;19;154349;-58
2022/11/18 07:14:33;;;;;;;;;;;;;;;21.19;51.29;99538.31;7257114;19;153059;-58
2022/11/18 07:17:00;;;;;;;;;;;;;;;21.21;51.48;99542.41;7253939;19;153827;-59
2022/11/18 07:19:26;;;;;;;;;;;;;;;21.26;51.17;99550.63;7264590;19;153403;-60
2022/11/18 07:22:00;;;;;;;;;;;;;;;21.28;50.79;99558.69;7251142;19;153819;-59
2022/11/18 07:24:27;;;;;;;;;;;;;;;21.31;50.48;99549.56;7252665;19;154242;-59
2022/11/18 07:26:54;;;;;;;;;;;;;;;21.32;49.79;99551.22;7254274;19;153519;-59
2022/11/18 07:29:20;;;;;;;;;;;;;;;21.34;49.53;99557.31;7253026;19;155931;-60
2022/11/18 07:31:47;;;;;;;;;;;;;;;21.35;49.67;99575.78;7252988;19;153147;-59
2022/11/18 07:34:14;;;;;;;;;;;;;;;21.36;49.56;99574.63;7256257;19;154771;-59
2022/11/18 07:36:40;;;;;;;;;;;;;;;21.39;49.60;99578.75;7250786;19;154253;-59
2022/11/18 07:39:07;;;;;;;;;;;;;;;21.38;49.18;99579.91;7254876;19;153190;-59
2022/11/18 07:41:34;;;;;;;;;;;;;;;21.39;49.08;99587.19;7260108;19;152956;-59
2022/11/18 07:44:02;;;;;;;;;;;;;;;21.40;49.33;99592.44;7256452;19;154620;-59
2022/11/18 07:46:31;;;;;;;;;;;;;;;21.44;48.69;99601.03;7252258;19;153570;-59
2022/11/18 07:48:59;;;;;;;;;;;;;;;21.40;48.89;99608.47;7253193;19;154523;-60
2022/11/18 07:51:27;;;;;;;;;;;;;;;21.16;43.90;99601.63;7250002;19;153925;-58
2022/11/18 07:53:54;;;;;;;;;;;;;;;21.15;44.80;99616.84;7251087;19;152877;-58
2022/11/18 07:56:20;;;;;;;;;;;;;;;21.15;45.36;99613.22;7254218;19;154351;-58
2022/11/18 07:58:50;;;;;;;;;;;;;;;21.16;45.54;99623.28;7251758;19;153868;-58
2022/11/18 08:01:18;;;;;;;;;;;;;;;21.17;45.64;99628.53;7259859;19;153902;-58
2022/11/18 08:03:45;;;;;;;;;;;;;;;21.19;45.62;99633.81;7268038;19;156214;-58
2022/11/18 08:06:13;;;;;;;;;;;;;;;21.19;46.01;99637.44;7259458;19;153366;-58
2022/11/18 08:08:41;;;;;;;;;;;;;;;21.20;45.64;99646.69;7251654;19;154787;-58
2022/11/18 08:11:08;;;;;;;;;;;;;;;21.21;45.50;99646.34;7260260;19;154533;-58
2022/11/18 08:13:35;;;;;;;;;;;;;;;21.21;45.92;99659.59;7260628;19;153500;-58
2022/11/18 08:16:03;;;;;;;;;;;;;;;21.22;45.80;99658.41;7259569;19;154383;-58
2022/11/18 08:18:30;;;;;;;;;;;;;;;21.23;45.70;99663.69;7256971;19;154446;-58
2022/11/18 08:21:01;;;;;;;;;;;;;;;21.24;45.82;99665.34;7260873;19;153582;-58
2022/11/18 08:23:28;;;;;;;;;;;;;;;21.25;45.90;99663.34;7256655;19;152520;-58
2022/11/18 08:26:10;;;;;;;;;;;;;;;21.27;45.98;99669.44;7267815;19;153077;-58
2022/11/18 08:28:37;;;;;;;;;;;;;;;21.30;46.19;99677.19;7258001;19;154317;-58
2022/11/18 08:31:07;;;;;;;;;;;;;;;21.35;46.13;99674.13;7259797;19;154816;-60
2022/11/18 08:33:37;;;;;;;;;;;;;;;21.36;46.44;99672.97;7261114;19;154081;-60
2022/11/18 08:36:24;;;;;;;;;;;;;;;21.35;46.34;99679.75;7258668;19;154129;-60
2022/11/18 08:38:50;;;;;;;;;;;;;;;21.35;46.38;99684.59;7258797;19;152698;-60
2022/11/18 08:41:30;;;;;;;;;;;;;;;21.34;45.76;99692.19;7259345;19;153648;-60
2022/11/18 08:43:57;;;;;;;;;;;;;;;21.32;46.10;99691.69;7260315;19;154070;-60
2022/11/18 08:46:23;;;;;;;;;;;;;;;21.32;46.07;99691.69;7265200;19;152967;-60
2022/11/18 08:48:50;;;;;;;;;;;;;;;21.31;46.02;99706.91;7258992;19;153402;-60
2022/11/18 08:51:17;;;;;;;;;;;;;;;21.29;45.83;99698.00;7258227;19;153788;-60
2022/11/18 08:53:43;;;;;;;;;;;;;;;21.31;45.82;99709.72;7257760;19;154150;-61
2022/11/18 08:56:14;;;;;;;;;;;;;;;21.30;45.54;99713.72;7258623;19;154110;-61
2022/11/18 08:58:41;;;;;;;;;;;;;;;21.30;45.22;99716.53;7260005;19;152999;-61
2022/11/18 09:01:08;;;;;;;;;;;;;;;21.29;45.03;99704.47;7259253;19;154085;-61
2022/11/18 09:03:35;;;;;;;;;;;;;;;21.27;45.11;99712.41;7258696;19;154187;-61
2022/11/18 09:06:08;;;;;;;;;;;;;;;21.26;45.20;99713.56;7258035;19;153618;-60
2022/11/18 09:08:35;;;;;;;;;;;;;;;21.25;45.43;99719.53;7262356;19;154212;-61
2022/11/18 09:11:28;;;;;;;;;;;;;;;21.25;45.13;99716.72;7258405;19;153239;-61
2022/11/18 09:13:58;;;;;;;;;;;;;;;21.25;44.86;99719.53;7257465;19;153583;-61
2022/11/18 09:16:45;;;;;;;;;;;;;;;21.25;45.02;99730.78;7256237;19;155830;-61
2022/11/18 09:19:13;;;;;;;;;;;;;;;21.24;44.91;99738.38;7260699;19;153312;-61
2022/11/18 09:22:00;;;;;;;;;;;;;;;21.23;45.04;99738.72;7255433;19;154320;-60
2022/11/18 09:24:26;;;;;;;;;;;;;;;21.21;44.80;99741.84;7256297;19;154038;-61
2022/11/18 09:26:53;;;;;;;;;;;;;;;21.20;45.16;99745.03;7259010;19;153482;-61
2022/11/18 09:29:24;;;;;;;;;;;;;;;21.21;44.90;99755.09;7257461;19;153453;-61
2022/11/18 09:31:53;;;;;;;;;;;;;;;21.20;44.73;99761.88;7263361;19;153569;-61
2022/11/18 09:34:21;;;;;;;;;;;;;;;21.18;45.12;99759.41;7259836;19;153734;-61
2022/11/18 09:36:48;;;;;;;;;;;;;;;21.17;44.89;99763.38;7255658;19;153789;-61
2022/11/18 09:39:15;;;;;;;;;;;;;;;21.17;44.99;99760.56;7258101;19;153634;-61
2022/11/18 09:41:52;;;;;;;;;;;;;;;21.16;44.64;99764.56;7257866;19;154624;-61
2022/11/18 09:44:37;;;;;;;;;;;;;;;21.14;44.50;99764.06;7257413;19;153454;-61
2022/11/18 09:47:23;;;;;;;;;;;;;;;21.13;44.49;99768.03;7257273;19;152630;-60
2022/11/18 09:49:50;;;;;;;;;;;;;;;21.12;44.52;99773.97;7256579;19;152199;-61
2022/11/18 09:52:19;;;;;;;;;;;;;;;21.10;44.83;99785.53;7253031;19;154147;-61
2022/11/18 09:54:46;;;;;;;;;;;;;;;21.09;44.80;99785.88;7265994;19;153656;-60
2022/11/18 09:57:14;;;;;;;;;;;;;;;21.07;44.60;99777.81;7257398;19;153694;-60
2022/11/18 09:59:41;;;;;;;;;;;;;;;21.06;44.84;99792.16;7257958;19;152220;-61
2022/11/18 10:02:21;;;;;;;;;;;;;;;21.05;44.23;99798.94;7257537;19;154550;-60
2022/11/18 10:04:48;;;;;;;;;;;;;;;21.02;44.32;99803.28;7256255;19;152292;-60
2022/11/18 10:07:26;;;;;;;;;;;;;;;21.00;44.62;99805.59;7248898;19;152652;-60
2022/11/18 10:10:06;;;;;;;;;;;;;;;21.00;44.21;99813.19;7245256;19;154538;-61
2022/11/18 10:12:38;;;;;;;;;;;;;;;20.98;44.51;99813.53;7255060;19;154440;-60
2022/11/18 10:15:13;;;;;;;;;;;;;;;20.98;44.57;99823.94;7255005;19;153123;-60
2022/11/18 10:17:50;;;;;;;;;;;;;;;20.95;44.81;99825.44;7258907;19;154419;-60
2022/11/18 10:20:20;;;;;;;;;;;;;;;20.96;44.77;99823.44;7252715;19;152190;-61
2022/11/18 10:22:57;;;;;;;;;;;;;;;20.95;44.67;99836.66;7243225;19;154397;-61
2022/11/18 10:25:25;;;;;;;;;;;;;;;20.96;45.11;99835.50;7251084;19;155078;-61
2022/11/18 10:27:52;;;;;;;;;;;;;;;20.96;45.40;99834.69;7248705;19;153519;-61
2022/11/18 10:30:21;;;;;;;;;;;;;;;20.98;45.02;99838.00;7249660;19;153705;-60
2022/11/18 10:32:52;;;;;;;;;;;;;;;20.97;45.37;99841.94;7249690;19;153438;-61
2022/11/18 10:35:23;;;;;;;;;;;;;;;20.98;45.19;99840.78;7254627;19;152905;-61
2022/11/18 10:38:00;;;;;;;;;;;;;;;20.99;45.05;99848.84;7246944;19;153923;-61
2022/11/18 10:40:36;;;;;;;;;;;;;;;21.00;44.82;99856.13;7255781;19;154200;-61
2022/11/18 10:43:04;;;;;;;;;;;;;;;21.00;45.02;99846.88;7250846;19;152742;-61
2022/11/18 10:45:32;;;;;;;;;;;;;;;21.02;44.71;99853.00;7247176;19;154255;-61
2022/11/18 10:48:05;;;;;;;;;;;;;;;21.03;45.07;99849.03;7250735;19;153503;-61
2022/11/18 10:50:35;;;;;;;;;;;;;;;21.04;44.61;99857.09;7248661;19;154260;-61
2022/11/18 10:53:02;;;;;;;;;;;;;;;21.06;44.74;99865.19;7246194;19;154047;-61
2022/11/18 10:55:30;;;;;;;;;;;;;;;21.07;44.73;99862.06;7249938;19;153405;-61
2022/11/18 10:58:06;;;;;;;;;;;;;;;21.07;44.95;99853.63;7248656;19;153718;-61
2022/11/18 11:00:40;;;;;;;;;;;;;;;21.10;44.65;99849.31;7254633;19;154564;-61
2022/11/18 11:03:20;;;;;;;;;;;;;;;21.11;44.79;99854.59;7248774;19;153732;-60
2022/11/18 11:05:47;;;;;;;;;;;;;;;21.11;44.70;99856.59;7246031;19;154401;-61
2022/11/18 11:08:18;;;;;;;;;;;;;;;21.13;44.69;99857.06;7242402;19;153193;-61
2022/11/18 11:11:18;;;;;;;;;;;;;;;21.14;44.62;99859.56;7246028;19;153617;-61
2022/11/18 11:13:45;;;;;;;;;;;;;;;21.16;44.82;99860.06;7251979;19;152970;-61
2022/11/18 11:16:16;;;;;;;;;;;;;;;21.16;44.59;99862.88;7251465;19;153830;-61
2022/11/18 11:18:52;;;;;;;;;;;;;;;21.19;44.84;99872.59;7255031;19;153441;-61
2022/11/18 11:21:23;;;;;;;;;;;;;;;21.18;44.28;99870.94;7249494;19;155180;-61
2022/11/18 11:23:50;;;;;;;;;;;;;;;21.18;44.29;99871.75;7257260;19;154491;-61
2022/11/18 11:26:27;;;;;;;;;;;;;;;21.19;44.45;99866.97;7252259;19;153889;-61
2022/11/18 11:29:17;;;;;;;;;;;;;;;21.19;44.28;99873.41;7253719;19;153621;-62
2022/11/18 11:31:56;;;;;;;;;;;;;;;21.20;44.08;99868.63;7250319;19;154425;-61
2022/11/18 11:34:23;;;;;;;;;;;;;;;21.19;44.39;99875.41;7252485;19;155193;-61
2022/11/18 11:36:58;;;;;;;;;;;;;;;21.20;44.45;99877.06;7247502;19;152433;-61
2022/11/18 11:39:36;;;;;;;;;;;;;;;21.20;44.19;99865.81;7254208;19;153381;-61
2022/11/18 11:42:12;;;;;;;;;;;;;;;21.19;44.58;99879.03;7248583;19;154171;-61
2022/11/18 11:44:39;;;;;;;;;;;;;;;21.20;44.29;99880.69;7255037;19;153084;-61
2022/11/18 11:49:52;;;;;;;;;;;;;;;21.19;44.27;99893.06;7253095;19;152826;-61
2022/11/18 11:52:26;;;;;;;;;;;;;;;21.20;44.19;99893.91;7248570;19;155365;-61
2022/11/18 11:54:55;;;;;;;;;;;;;;;21.19;44.45;99893.06;7250433;19;153994;-61
2022/11/18 11:57:24;;;;;;;;;;;;;;;21.17;44.14;99895.38;7252737;19;154546;-61
2022/11/18 11:59:57;;;;;;;;;;;;;;;21.16;44.08;99902.19;7254129;19;153988;-60
2022/11/18 12:02:26;;;;;;;;;;;;;;;21.15;44.00;99897.72;7251264;19;153995;-60
2022/11/18 12:04:59;;;;;;;;;;;;;;;21.13;44.35;99900.03;7252991;19;154216;-60
2022/11/18 12:07:31;;;;;;;;;;;;;;;21.09;44.21;99913.09;7237024;19;153712;-61
2022/11/18 12:10:08;;;;;;;;;;;;;;;21.09;44.47;99915.88;7259869;19;153948;-61
2022/11/18 12:12:42;;;;;;;;;;;;;;;21.08;44.29;99905.81;7247307;19;153790;-61
2022/11/18 12:15:18;;;;;;;;;;;;;;;21.09;44.37;99912.25;7249473;19;153959;-61
2022/11/18 12:17:51;;;;;;;;;;;;;;;21.07;44.22;99909.81;7248020;19;153336;-61
2022/11/18 12:20:27;;;;;;;;;;;;;;;21.08;44.52;99905.81;7251486;19;156513;-61
2022/11/18 12:23:06;;;;;;;;;;;;;;;21.08;44.36;99911.44;7243226;19;155370;-61
2022/11/18 12:25:43;;;;;;;;;;;;;;;21.07;44.20;99912.63;7248789;19;153025;-61
2022/11/18 12:28:10;;;;;;;;;;;;;;;21.08;44.12;99913.41;7248041;19;152919;-60
2022/11/18 12:30:37;;;;;;;;;;;;;;;21.08;44.14;99919.84;7245203;19;154160;-61
2022/11/18 12:33:10;;;;;;;;;;;;;;;21.08;44.28;99913.41;7256626;19;154019;-61
2022/11/18 12:35:37;;;;;;;;;;;;;;;21.07;44.35;99923.03;7246201;19;154825;-61
2022/11/18 12:38:04;;;;;;;;;;;;;;;21.08;44.87;99927.44;7245614;19;153232;-61
2022/11/18 12:40:33;;;;;;;;;;;;;;;21.08;44.80;99925.47;7248939;19;153820;-61
2022/11/18 12:45:41;;;;;;;;;;;;;;;21.14;44.92;99937.38;7249733;19;154318;-66
2022/11/18 12:48:18;;;;;;;;;;;;;;;21.17;45.29;99929.09;7254598;19;153806;-61
2022/11/18 12:50:53;;;;;;;;;;;;;;;21.19;44.84;99934.38;7254249;19;155085;-61
2022/11/18 12:53:30;;;;;;;;;;;;;;;21.21;45.30;99935.69;7257765;19;152712;-61
2022/11/18 12:55:57;;;;;;;;;;;;;;;21.24;45.18;99946.25;7253683;19;154652;-61
2022/11/18 12:58:25;;;;;;;;;;;;;;;21.26;44.71;99949.53;7252935;19;153003;-61
2022/11/18 13:01:05;;;;;;;;;;;;;;;21.29;45.00;99954.50;7255975;19;154838;-61
2022/11/18 13:03:33;;;;;;;;;;;;;;;21.29;44.77;99954.50;7250880;19;152974;-61
2022/11/18 13:06:02;;;;;;;;;;;;;;;21.32;44.78;99953.00;7252234;19;152673;-61
2022/11/18 13:08:29;;;;;;;;;;;;;;;21.32;44.68;99955.81;7248788;19;153635;-61
2022/11/18 13:13:40;;;;;;;;;;;;;;;21.33;45.08;99957.47;7253355;19;156259;-61